Ragersville, Ohio
Current Conditions -  °F | °C
As of 2:53 AM on Friday 21 Nov 2014 (Local Time) from KPHD Reporting Station
Broken Clouds Broken Clouds  
Wind Chill: 18°   Ceiling: 3200
Heat Index: 18°   Visibility: 10mi
Dew Point: 14°   Wind: 0mph
Humidity: 84%   Direction: NA
Pressure: 30.26"   Gusts: NA
Location:  40.5178°N, 81.673°W
Report Text: KPHD 210753Z AUTO 00000KT 10SM SCT028 BKN032 BKN040 M08/M10 A3026 RMK AO2 SLP259 T10781100
Loading
Personal Weather Stations






























Interactive Weather Map New forecast layout! Learn more

10-Day Weather Forecast

Advertisements
Track Severe Weather on mobile